Arklow Wind — EIKZ — position and weather

sailwx.info

Track history (hours):
 
Tides and Currents Weather Stations Pressure Air Temp Water Temp Dewpoint Dewpoint Depression Visibility Wind Speed Wind Dir Waves Ship Positions

Arklow Wind

Last reported at 2014-Jul-29 00:33 UTC. Time now 2014-Jul-29 00:44 UTC.
Position N 36°25' E 015°25'.

Length 136 m; draft 5.4 m.

Type: Cargo ship. MMSI: 250506000.

Date/timePositionNaut miles runAvg speedWind from/ knotsBaromVisibWave heightAir tempDewpointWater temp
2014-Jul-29 00:33N 36°25' E 015°25'38213.1
2014-Jul-27 19:27N 36°27' E 023°20'1213.3
2014-Jul-27 18:33N 36°36' E 023°28'1312.8
2014-Jul-27 17:33N 36°46' E 023°39'1312.9
2014-Jul-27 16:33N 36°57' E 023°48'1313.4
2014-Jul-27 15:33N 37°07' E 023°59'3113.7
2014-Jul-27 13:17N 37°32' E 024°23'1013.5
2014-Jul-27 12:32N 37°40' E 024°29'5613.5
2014-Jul-27 08:25N 38°32' E 024°58'1313.9
2014-Jul-27 07:31N 38°43' E 025°05'1313.5
2014-Jul-27 06:33N 38°54' E 025°13'5413.5
2014-Jul-27 02:33N 39°42' E 025°45'1413.9
2014-Jul-27 01:33N 39°54' E 025°53'1313.1
2014-Jul-27 00:34N 40°01' E 026°08'1512.8
2014-Jul-26 23:24N 40°11' E 026°23'1311.8
2014-Jul-26 22:19N 40°19' E 026°36'1212.5
2014-Jul-26 21:19N 40°27' E 026°48'1613.1
2014-Jul-26 20:08N 40°34' E 027°06'7111.8
2014-Jul-26 14:04N 40°36' E 028°40'611.9
2014-Jul-26 13:33N 40°32' E 028°45'1312.0
2014-Jul-26 12:30N 40°26' E 029°00'4 1.0
2014-Jul-26 08:28N 40°25' E 029°05'  
2014-Jul-23 04:11N 40°25' E 029°05'0 0.0
2014-Jul-23 03:05N 40°25' E 029°05'  
Track history (hours):
 
Tides and Currents Weather Stations Pressure Air Temp Water Temp Dewpoint Dewpoint Depression Visibility Wind Speed Wind Dir Waves Ship Positions

Arklow Wind

Last reported at 2014-Jul-29 00:33 UTC. Time now 2014-Jul-29 00:44 UTC.
Position N 36°25' E 015°25'.

Length 136 m; draft 5.4 m.

Type: Cargo ship. MMSI: 250506000.

Date/timePositionNaut miles runAvg speedWind from/ knotsBaromVisibWave heightAir tempDewpointWater temp
2014-Jul-29 00:33N 36°25' E 015°25'38213.1
2014-Jul-27 19:27N 36°27' E 023°20'1213.3
2014-Jul-27 18:33N 36°36' E 023°28'1312.8
2014-Jul-27 17:33N 36°46' E 023°39'1312.9
2014-Jul-27 16:33N 36°57' E 023°48'1313.4
2014-Jul-27 15:33N 37°07' E 023°59'3113.7
2014-Jul-27 13:17N 37°32' E 024°23'1013.5
2014-Jul-27 12:32N 37°40' E 024°29'5613.5
2014-Jul-27 08:25N 38°32' E 024°58'1313.9
2014-Jul-27 07:31N 38°43' E 025°05'1313.5
2014-Jul-27 06:33N 38°54' E 025°13'5413.5
2014-Jul-27 02:33N 39°42' E 025°45'1413.9
2014-Jul-27 01:33N 39°54' E 025°53'1313.1
2014-Jul-27 00:34N 40°01' E 026°08'1512.8
2014-Jul-26 23:24N 40°11' E 026°23'1311.8
2014-Jul-26 22:19N 40°19' E 026°36'1212.5
2014-Jul-26 21:19N 40°27' E 026°48'1613.1
2014-Jul-26 20:08N 40°34' E 027°06'7111.8
2014-Jul-26 14:04N 40°36' E 028°40'611.9
2014-Jul-26 13:33N 40°32' E 028°45'1312.0
2014-Jul-26 12:30N 40°26' E 029°00'4 1.0
2014-Jul-26 08:28N 40°25' E 029°05'  
2014-Jul-23 04:11N 40°25' E 029°05'0 0.0
2014-Jul-23 03:05N 40°25' E 029°05'  

Dump ship's entire track history